sensor_id;sensor_type;location;lat;lon;timestamp;temperature;humidity
38798;SHT11;24546;52.240;16.826;2022-11-15T00:00:38;6.10;99.90
38798;SHT11;24546;52.240;16.826;2022-11-15T00:06:02;6.00;99.90
38798;SHT11;24546;52.240;16.826;2022-11-15T00:11:22;5.80;99.90
38798;SHT11;24546;52.240;16.826;2022-11-15T00:16:42;5.80;99.90
38798;SHT11;24546;52.240;16.826;2022-11-15T00:22:01;5.80;99.90
38798;SHT11;24546;52.240;16.826;2022-11-15T00:27:21;5.90;99.90
38798;SHT11;24546;52.240;16.826;2022-11-15T00:32:41;5.80;99.90
38798;SHT11;24546;52.240;16.826;2022-11-15T00:38:01;5.80;99.90
38798;SHT11;24546;52.240;16.826;2022-11-15T00:43:21;5.70;99.90
38798;SHT11;24546;52.240;16.826;2022-11-15T00:48:41;5.70;99.90
38798;SHT11;24546;52.240;16.826;2022-11-15T00:54:00;5.70;99.90
38798;SHT11;24546;52.240;16.826;2022-11-15T00:59:20;5.80;99.90
38798;SHT11;24546;52.240;16.826;2022-11-15T01:04:39;5.80;99.90
38798;SHT11;24546;52.240;16.826;2022-11-15T01:09:59;5.60;99.90
38798;SHT11;24546;52.240;16.826;2022-11-15T01:15:19;5.70;99.90
38798;SHT11;24546;52.240;16.826;2022-11-15T01:20:42;5.60;99.90
38798;SHT11;24546;52.240;16.826;2022-11-15T01:26:03;5.60;99.90
38798;SHT11;24546;52.240;16.826;2022-11-15T01:31:23;5.60;99.90
38798;SHT11;24546;52.240;16.826;2022-11-15T01:36:42;5.60;99.90
38798;SHT11;24546;52.240;16.826;2022-11-15T01:42:02;5.60;99.90
38798;SHT11;24546;52.240;16.826;2022-11-15T01:47:26;5.50;99.90
38798;SHT11;24546;52.240;16.826;2022-11-15T01:52:46;5.60;99.90
38798;SHT11;24546;52.240;16.826;2022-11-15T01:58:07;5.50;99.90
38798;SHT11;24546;52.240;16.826;2022-11-15T02:03:34;5.50;99.90
38798;SHT11;24546;52.240;16.826;2022-11-15T02:08:55;5.70;99.90
38798;SHT11;24546;52.240;16.826;2022-11-15T02:14:18;5.60;99.90
38798;SHT11;24546;52.240;16.826;2022-11-15T02:35:48;5.50;99.90
38798;SHT11;24546;52.240;16.826;2022-11-15T02:41:27;5.50;99.90
38798;SHT11;24546;52.240;16.826;2022-11-15T02:47:03;5.50;99.90
38798;SHT11;24546;52.240;16.826;2022-11-15T02:52:32;5.40;99.90
38798;SHT11;24546;52.240;16.826;2022-11-15T02:58:14;5.40;99.90
38798;SHT11;24546;52.240;16.826;2022-11-15T03:09:39;5.30;99.90
38798;SHT11;24546;52.240;16.826;2022-11-15T03:15:06;5.30;99.90
38798;SHT11;24546;52.240;16.826;2022-11-15T03:20:28;5.30;99.90
38798;SHT11;24546;52.240;16.826;2022-11-15T03:25:49;5.20;99.90
38798;SHT11;24546;52.240;16.826;2022-11-15T03:31:12;5.10;99.90
38798;SHT11;24546;52.240;16.826;2022-11-15T03:36:52;5.10;99.90
38798;SHT11;24546;52.240;16.826;2022-11-15T03:42:31;5.00;99.90
38798;SHT11;24546;52.240;16.826;2022-11-15T03:48:00;5.00;99.90
38798;SHT11;24546;52.240;16.826;2022-11-15T03:53:20;5.00;99.90
38798;SHT11;24546;52.240;16.826;2022-11-15T03:58:40;5.10;99.90
38798;SHT11;24546;52.240;16.826;2022-11-15T04:04:00;5.10;99.90
38798;SHT11;24546;52.240;16.826;2022-11-15T04:09:19;5.00;99.90
38798;SHT11;24546;52.240;16.826;2022-11-15T04:14:39;4.80;99.90
38798;SHT11;24546;52.240;16.826;2022-11-15T04:26:13;4.80;99.90
38798;SHT11;24546;52.240;16.826;2022-11-15T04:31:34;4.70;99.90
38798;SHT11;24546;52.240;16.826;2022-11-15T04:36:54;4.70;99.90
38798;SHT11;24546;52.240;16.826;2022-11-15T04:42:31;4.70;99.90
38798;SHT11;24546;52.240;16.826;2022-11-15T04:47:51;4.70;99.90
38798;SHT11;24546;52.240;16.826;2022-11-15T04:53:12;4.80;99.90
38798;SHT11;24546;52.240;16.826;2022-11-15T04:58:32;4.80;99.90
38798;SHT11;24546;52.240;16.826;2022-11-15T05:03:51;4.70;99.90
38798;SHT11;24546;52.240;16.826;2022-11-15T05:09:29;4.60;99.90
38798;SHT11;24546;52.240;16.826;2022-11-15T05:14:49;4.40;99.90
38798;SHT11;24546;52.240;16.826;2022-11-15T05:20:09;4.50;99.90
38798;SHT11;24546;52.240;16.826;2022-11-15T05:25:30;4.50;99.90
38798;SHT11;24546;52.240;16.826;2022-11-15T05:30:49;4.60;99.90
38798;SHT11;24546;52.240;16.826;2022-11-15T05:36:19;4.50;99.90
38798;SHT11;24546;52.240;16.826;2022-11-15T05:41:50;4.60;99.90
38798;SHT11;24546;52.240;16.826;2022-11-15T05:47:14;4.60;99.90
38798;SHT11;24546;52.240;16.826;2022-11-15T05:52:37;4.70;99.90
38798;SHT11;24546;52.240;16.826;2022-11-15T05:57:57;4.60;99.90
38798;SHT11;24546;52.240;16.826;2022-11-15T06:03:17;4.60;99.90
38798;SHT11;24546;52.240;16.826;2022-11-15T06:08:36;5.00;99.90
38798;SHT11;24546;52.240;16.826;2022-11-15T06:13:56;4.70;99.90
38798;SHT11;24546;52.240;16.826;2022-11-15T06:19:16;4.70;99.90
38798;SHT11;24546;52.240;16.826;2022-11-15T06:24:35;4.80;99.90
38798;SHT11;24546;52.240;16.826;2022-11-15T06:29:55;4.80;99.90
38798;SHT11;24546;52.240;16.826;2022-11-15T06:35:15;4.80;99.90
38798;SHT11;24546;52.240;16.826;2022-11-15T06:40:37;4.80;99.90
38798;SHT11;24546;52.240;16.826;2022-11-15T06:45:58;5.10;99.90
38798;SHT11;24546;52.240;16.826;2022-11-15T06:51:18;5.00;99.90
38798;SHT11;24546;52.240;16.826;2022-11-15T06:56:38;4.90;99.90
38798;SHT11;24546;52.240;16.826;2022-11-15T07:01:58;4.80;99.90
38798;SHT11;24546;52.240;16.826;2022-11-15T07:07:18;4.90;99.90
38798;SHT11;24546;52.240;16.826;2022-11-15T07:12:37;4.80;99.90
38798;SHT11;24546;52.240;16.826;2022-11-15T07:18:00;4.80;99.90
38798;SHT11;24546;52.240;16.826;2022-11-15T07:23:20;4.80;99.90
38798;SHT11;24546;52.240;16.826;2022-11-15T07:28:39;4.80;99.90
38798;SHT11;24546;52.240;16.826;2022-11-15T07:33:58;5.00;99.90
38798;SHT11;24546;52.240;16.826;2022-11-15T07:39:18;5.00;99.90
38798;SHT11;24546;52.240;16.826;2022-11-15T07:44:37;5.00;99.90
38798;SHT11;24546;52.240;16.826;2022-11-15T07:49:57;5.30;99.90
38798;SHT11;24546;52.240;16.826;2022-11-15T07:55:16;5.20;99.90
38798;SHT11;24546;52.240;16.826;2022-11-15T08:00:36;5.30;99.90
38798;SHT11;24546;52.240;16.826;2022-11-15T08:05:55;5.40;99.90
38798;SHT11;24546;52.240;16.826;2022-11-15T08:11:15;5.50;99.90
38798;SHT11;24546;52.240;16.826;2022-11-15T08:16:34;5.40;99.90
38798;SHT11;24546;52.240;16.826;2022-11-15T08:21:53;5.90;99.90
38798;SHT11;24546;52.240;16.826;2022-11-15T08:27:13;5.60;99.90
38798;SHT11;24546;52.240;16.826;2022-11-15T08:32:36;5.90;99.90
38798;SHT11;24546;52.240;16.826;2022-11-15T08:37:55;5.60;99.90
38798;SHT11;24546;52.240;16.826;2022-11-15T08:43:14;5.70;99.90
38798;SHT11;24546;52.240;16.826;2022-11-15T08:48:34;5.90;99.90
38798;SHT11;24546;52.240;16.826;2022-11-15T08:53:54;5.80;99.90
38798;SHT11;24546;52.240;16.826;2022-11-15T08:59:13;6.00;99.90
38798;SHT11;24546;52.240;16.826;2022-11-15T09:04:33;6.00;99.90
38798;SHT11;24546;52.240;16.826;2022-11-15T09:09:53;6.10;99.90
38798;SHT11;24546;52.240;16.826;2022-11-15T09:15:12;6.40;99.90
38798;SHT11;24546;52.240;16.826;2022-11-15T09:20:31;6.30;99.90
38798;SHT11;24546;52.240;16.826;2022-11-15T09:25:59;6.50;99.90
38798;SHT11;24546;52.240;16.826;2022-11-15T09:31:19;6.70;99.90
38798;SHT11;24546;52.240;16.826;2022-11-15T09:36:38;6.60;99.90
38798;SHT11;24546;52.240;16.826;2022-11-15T09:48:06;7.10;99.90
38798;SHT11;24546;52.240;16.826;2022-11-15T09:53:34;7.20;99.90
38798;SHT11;24546;52.240;16.826;2022-11-15T09:59:02;7.30;99.90
38798;SHT11;24546;52.240;16.826;2022-11-15T10:04:04;7.40;99.90
38798;SHT11;24546;52.240;16.826;2022-11-15T10:09:29;7.50;99.90
38798;SHT11;24546;52.240;16.826;2022-11-15T10:14:32;7.70;99.90
38798;SHT11;24546;52.240;16.826;2022-11-15T10:19:45;7.80;99.90
38798;SHT11;24546;52.240;16.826;2022-11-15T10:24:47;7.90;99.90
38798;SHT11;24546;52.240;16.826;2022-11-15T10:29:50;8.30;99.90
38798;SHT11;24546;52.240;16.826;2022-11-15T10:34:51;8.20;99.90
38798;SHT11;24546;52.240;16.826;2022-11-15T10:40:27;8.10;99.90
38798;SHT11;24546;52.240;16.826;2022-11-15T10:45:31;8.20;99.90
38798;SHT11;24546;52.240;16.826;2022-11-15T10:50:32;8.20;99.90
38798;SHT11;24546;52.240;16.826;2022-11-15T10:55:34;8.10;99.90
38798;SHT11;24546;52.240;16.826;2022-11-15T11:00:37;8.00;99.90
38798;SHT11;24546;52.240;16.826;2022-11-15T11:05:40;8.40;99.90
38798;SHT11;24546;52.240;16.826;2022-11-15T11:11:02;8.30;99.90
38798;SHT11;24546;52.240;16.826;2022-11-15T11:16:22;8.50;99.90
38798;SHT11;24546;52.240;16.826;2022-11-15T11:21:39;8.40;99.90
38798;SHT11;24546;52.240;16.826;2022-11-15T11:32:31;8.50;99.90
38798;SHT11;24546;52.240;16.826;2022-11-15T11:38:00;8.60;99.90
38798;SHT11;24546;52.240;16.826;2022-11-15T11:53:46;8.30;99.90
38798;SHT11;24546;52.240;16.826;2022-11-15T11:58:50;8.40;99.90
38798;SHT11;24546;52.240;16.826;2022-11-15T12:04:03;8.60;99.90
38798;SHT11;24546;52.240;16.826;2022-11-15T12:09:21;8.80;99.90
38798;SHT11;24546;52.240;16.826;2022-11-15T12:19:29;8.70;99.90
38798;SHT11;24546;52.240;16.826;2022-11-15T12:29:55;8.70;99.90
38798;SHT11;24546;52.240;16.826;2022-11-15T12:34:57;8.90;99.90
38798;SHT11;24546;52.240;16.826;2022-11-15T13:06:39;8.70;99.90
38798;SHT11;24546;52.240;16.826;2022-11-15T13:11:49;8.60;99.90
38798;SHT11;24546;52.240;16.826;2022-11-15T13:16:57;8.70;99.90
38798;SHT11;24546;52.240;16.826;2022-11-15T13:21:58;8.80;99.90
38798;SHT11;24546;52.240;16.826;2022-11-15T13:27:19;8.70;99.90
38798;SHT11;24546;52.240;16.826;2022-11-15T13:32:21;8.60;99.90
38798;SHT11;24546;52.240;16.826;2022-11-15T13:42:28;8.70;99.90
38798;SHT11;24546;52.240;16.826;2022-11-15T13:47:29;8.60;99.90
38798;SHT11;24546;52.240;16.826;2022-11-15T13:52:32;8.50;99.90
38798;SHT11;24546;52.240;16.826;2022-11-15T14:02:41;8.60;99.90
38798;SHT11;24546;52.240;16.826;2022-11-15T14:07:53;8.60;99.90
38798;SHT11;24546;52.240;16.826;2022-11-15T14:12:55;8.60;99.90
38798;SHT11;24546;52.240;16.826;2022-11-15T14:17:56;8.70;99.90
38798;SHT11;24546;52.240;16.826;2022-11-15T14:23:04;8.80;99.90
38798;SHT11;24546;52.240;16.826;2022-11-15T14:28:11;8.80;99.90
38798;SHT11;24546;52.240;16.826;2022-11-15T14:33:36;8.80;99.90
38798;SHT11;24546;52.240;16.826;2022-11-15T14:38:38;8.50;99.90
38798;SHT11;24546;52.240;16.826;2022-11-15T14:43:39;8.50;99.90
38798;SHT11;24546;52.240;16.826;2022-11-15T14:48:39;8.60;99.90
38798;SHT11;24546;52.240;16.826;2022-11-15T14:53:41;8.40;99.90
38798;SHT11;24546;52.240;16.826;2022-11-15T14:58:42;8.40;99.90
38798;SHT11;24546;52.240;16.826;2022-11-15T15:03:43;8.50;99.90
38798;SHT11;24546;52.240;16.826;2022-11-15T15:08:45;8.30;99.90
38798;SHT11;24546;52.240;16.826;2022-11-15T15:13:48;8.00;99.90
38798;SHT11;24546;52.240;16.826;2022-11-15T15:18:50;8.10;99.90
38798;SHT11;24546;52.240;16.826;2022-11-15T15:23:52;8.00;99.90
38798;SHT11;24546;52.240;16.826;2022-11-15T15:28:54;8.00;99.90
38798;SHT11;24546;52.240;16.826;2022-11-15T15:33:55;8.00;99.90
38798;SHT11;24546;52.240;16.826;2022-11-15T15:38:57;8.00;99.90
38798;SHT11;24546;52.240;16.826;2022-11-15T15:43:59;8.20;99.90
38798;SHT11;24546;52.240;16.826;2022-11-15T15:49:00;7.90;99.90
38798;SHT11;24546;52.240;16.826;2022-11-15T15:54:01;7.70;99.90
38798;SHT11;24546;52.240;16.826;2022-11-15T15:59:02;7.60;99.90
38798;SHT11;24546;52.240;16.826;2022-11-15T16:04:03;7.50;99.90
38798;SHT11;24546;52.240;16.826;2022-11-15T16:09:05;7.50;99.90
38798;SHT11;24546;52.240;16.826;2022-11-15T16:14:09;7.60;99.90
38798;SHT11;24546;52.240;16.826;2022-11-15T16:19:10;7.70;99.90
38798;SHT11;24546;52.240;16.826;2022-11-15T16:24:12;7.50;99.90
38798;SHT11;24546;52.240;16.826;2022-11-15T16:29:13;7.40;99.90
38798;SHT11;24546;52.240;16.826;2022-11-15T16:34:14;7.50;99.90
38798;SHT11;24546;52.240;16.826;2022-11-15T16:39:15;7.50;99.90
38798;SHT11;24546;52.240;16.826;2022-11-15T16:44:19;7.70;99.90
38798;SHT11;24546;52.240;16.826;2022-11-15T16:49:20;7.50;99.90
38798;SHT11;24546;52.240;16.826;2022-11-15T16:54:21;7.50;99.90
38798;SHT11;24546;52.240;16.826;2022-11-15T16:59:22;7.50;99.90
38798;SHT11;24546;52.240;16.826;2022-11-15T17:04:23;7.40;99.90
38798;SHT11;24546;52.240;16.826;2022-11-15T17:09:24;7.30;99.90
38798;SHT11;24546;52.240;16.826;2022-11-15T17:14:25;7.40;99.90
38798;SHT11;24546;52.240;16.826;2022-11-15T17:19:27;7.40;99.90
38798;SHT11;24546;52.240;16.826;2022-11-15T17:24:28;7.20;99.90
38798;SHT11;24546;52.240;16.826;2022-11-15T17:29:30;7.10;99.90
38798;SHT11;24546;52.240;16.826;2022-11-15T17:34:31;7.30;99.90
38798;SHT11;24546;52.240;16.826;2022-11-15T17:39:32;7.10;99.90
38798;SHT11;24546;52.240;16.826;2022-11-15T17:44:33;7.30;99.90
38798;SHT11;24546;52.240;16.826;2022-11-15T17:49:37;7.40;99.90
38798;SHT11;24546;52.240;16.826;2022-11-15T17:54:40;7.60;99.90
38798;SHT11;24546;52.240;16.826;2022-11-15T17:59:41;7.50;99.90
38798;SHT11;24546;52.240;16.826;2022-11-15T18:04:42;7.60;99.90
38798;SHT11;24546;52.240;16.826;2022-11-15T18:09:43;7.60;99.90
38798;SHT11;24546;52.240;16.826;2022-11-15T18:14:45;7.50;99.90
38798;SHT11;24546;52.240;16.826;2022-11-15T18:19:46;7.50;99.90
38798;SHT11;24546;52.240;16.826;2022-11-15T18:24:48;7.50;99.90
38798;SHT11;24546;52.240;16.826;2022-11-15T18:29:49;7.60;99.90
38798;SHT11;24546;52.240;16.826;2022-11-15T18:34:50;7.50;99.90
38798;SHT11;24546;52.240;16.826;2022-11-15T18:39:51;7.50;99.90
38798;SHT11;24546;52.240;16.826;2022-11-15T18:44:53;7.40;99.90
38798;SHT11;24546;52.240;16.826;2022-11-15T18:49:54;7.40;99.90
38798;SHT11;24546;52.240;16.826;2022-11-15T18:54:57;7.40;99.90
38798;SHT11;24546;52.240;16.826;2022-11-15T18:59:59;7.30;99.90
38798;SHT11;24546;52.240;16.826;2022-11-15T19:05:00;7.20;99.90
38798;SHT11;24546;52.240;16.826;2022-11-15T19:10:01;7.40;99.90
38798;SHT11;24546;52.240;16.826;2022-11-15T19:15:03;7.40;99.90
38798;SHT11;24546;52.240;16.826;2022-11-15T19:20:04;7.30;99.90
38798;SHT11;24546;52.240;16.826;2022-11-15T19:25:06;7.50;99.90
38798;SHT11;24546;52.240;16.826;2022-11-15T19:30:08;7.70;99.90
38798;SHT11;24546;52.240;16.826;2022-11-15T19:35:10;7.60;99.90
38798;SHT11;24546;52.240;16.826;2022-11-15T19:40:11;7.60;99.90
38798;SHT11;24546;52.240;16.826;2022-11-15T19:45:12;7.70;99.90
38798;SHT11;24546;52.240;16.826;2022-11-15T19:50:13;7.60;99.90
38798;SHT11;24546;52.240;16.826;2022-11-15T19:55:14;7.60;99.90
38798;SHT11;24546;52.240;16.826;2022-11-15T20:00:18;7.60;99.90
38798;SHT11;24546;52.240;16.826;2022-11-15T20:05:19;7.70;99.90
38798;SHT11;24546;52.240;16.826;2022-11-15T20:10:20;7.80;99.90
38798;SHT11;24546;52.240;16.826;2022-11-15T20:15:22;7.60;99.90
38798;SHT11;24546;52.240;16.826;2022-11-15T20:20:27;7.70;99.90
38798;SHT11;24546;52.240;16.826;2022-11-15T20:25:34;7.60;99.90
38798;SHT11;24546;52.240;16.826;2022-11-15T20:30:42;7.50;99.90
38798;SHT11;24546;52.240;16.826;2022-11-15T20:35:53;7.50;99.90
38798;SHT11;24546;52.240;16.826;2022-11-15T20:40:55;7.70;99.90
38798;SHT11;24546;52.240;16.826;2022-11-15T20:45:56;7.60;99.90
38798;SHT11;24546;52.240;16.826;2022-11-15T20:51:15;7.70;99.90
38798;SHT11;24546;52.240;16.826;2022-11-15T20:56:18;7.70;99.90
38798;SHT11;24546;52.240;16.826;2022-11-15T21:01:21;7.40;99.90
38798;SHT11;24546;52.240;16.826;2022-11-15T21:06:25;7.20;99.90
38798;SHT11;24546;52.240;16.826;2022-11-15T21:11:30;7.20;99.90
38798;SHT11;24546;52.240;16.826;2022-11-15T21:16:49;7.30;99.90
38798;SHT11;24546;52.240;16.826;2022-11-15T21:21:54;7.40;99.90
38798;SHT11;24546;52.240;16.826;2022-11-15T21:26:55;7.40;99.90
38798;SHT11;24546;52.240;16.826;2022-11-15T21:32:02;7.40;99.90
38798;SHT11;24546;52.240;16.826;2022-11-15T21:37:06;7.40;99.90
38798;SHT11;24546;52.240;16.826;2022-11-15T21:42:10;7.40;99.90
38798;SHT11;24546;52.240;16.826;2022-11-15T21:47:14;7.50;99.90
38798;SHT11;24546;52.240;16.826;2022-11-15T21:52:28;7.50;99.90
38798;SHT11;24546;52.240;16.826;2022-11-15T21:57:29;7.50;99.90
38798;SHT11;24546;52.240;16.826;2022-11-15T22:02:32;7.60;99.90
38798;SHT11;24546;52.240;16.826;2022-11-15T22:07:36;7.50;99.90
38798;SHT11;24546;52.240;16.826;2022-11-15T22:12:38;7.50;99.90
38798;SHT11;24546;52.240;16.826;2022-11-15T22:17:39;7.70;99.90
38798;SHT11;24546;52.240;16.826;2022-11-15T22:23:18;7.60;99.90
38798;SHT11;24546;52.240;16.826;2022-11-15T22:28:31;7.60;99.90
38798;SHT11;24546;52.240;16.826;2022-11-15T22:33:52;7.70;99.90
38798;SHT11;24546;52.240;16.826;2022-11-15T22:38:54;7.80;99.90
38798;SHT11;24546;52.240;16.826;2022-11-15T22:44:08;7.60;99.90
38798;SHT11;24546;52.240;16.826;2022-11-15T22:49:10;7.60;99.90
38798;SHT11;24546;52.240;16.826;2022-11-15T22:54:21;7.50;99.90
38798;SHT11;24546;52.240;16.826;2022-11-15T22:59:25;7.60;99.90
38798;SHT11;24546;52.240;16.826;2022-11-15T23:04:29;7.80;99.90
38798;SHT11;24546;52.240;16.826;2022-11-15T23:09:31;7.80;99.90
38798;SHT11;24546;52.240;16.826;2022-11-15T23:14:37;7.90;99.90
38798;SHT11;24546;52.240;16.826;2022-11-15T23:19:43;7.80;99.90
38798;SHT11;24546;52.240;16.826;2022-11-15T23:24:48;7.50;99.90
38798;SHT11;24546;52.240;16.826;2022-11-15T23:29:50;7.30;99.90
38798;SHT11;24546;52.240;16.826;2022-11-15T23:35:11;7.40;99.90
38798;SHT11;24546;52.240;16.826;2022-11-15T23:40:17;7.30;99.90
38798;SHT11;24546;52.240;16.826;2022-11-15T23:45:21;7.40;99.90
38798;SHT11;24546;52.240;16.826;2022-11-15T23:50:22;7.20;99.90
38798;SHT11;24546;52.240;16.826;2022-11-15T23:55:27;7.30;99.90
